Create Tblcommutelog Verified Points Advance Search
| # | Trip ID | Id Commuter | Trip Date | Trip Num | Current Lat | Current Lng | Delta Distance | Current Time | Activity | Activity Confidence | Current Speed | |
|---|---|---|---|---|---|---|---|---|---|---|---|---|
| 72461 | 250529_727233_6428227_0825 | 727233 | (not set) | (not set) | 39.06306030756 | -76.963070895927 | 14.7785 | 2025-05-29 12:52:08.225 | in_vehicle | 100 | 4.5240373009558 | |
| 72462 | 250529_785733_16424909_0848 | 785733 | (not set) | (not set) | 38.9025179 | -77.0170697 | 0.383 | 2025-05-29 12:52:10.324 | on_bicycle | 100 | 2.4229527837135 | |
| 72463 | 250529_753953_16495306_0840 | 753953 | (not set) | (not set) | 38.875336835173 | -77.116029366316 | 2.7385 | 2025-05-29 12:52:11.904 | in_vehicle | 100 | -0.44703925898772 | |
| 72464 | 250529_780745_16421763_0754 | 780745 | (not set) | (not set) | 38.933503099326 | -77.217793539743 | 27.6312 | 2025-05-29 12:52:12.272 | in_vehicle | 100 | 10.322136490027 | |
| 72465 | 250529_773849_16504560_0807 | 773849 | (not set) | (not set) | 38.899455162318 | -77.029724703604 | 10.7241 | 2025-05-29 12:52:13.225 | on_foot | 100 | 0.50515436265613 | |
| 72466 | 250529_784414_16503658_0816 | 784414 | (not set) | (not set) | 38.900860963439 | -77.050381965872 | 12.1009 | 2025-05-29 12:52:13.71 | in_vehicle | 100 | -0.44703925898772 | |
| 72467 | 250529_769092_16489920_0831 | 769092 | (not set) | (not set) | 38.803764082819 | -77.505469818029 | 11.2113 | 2025-05-29 12:52:14.399 | in_vehicle | 100 | 3.6523107459297 | |
| 72468 | 250529_780825_6461772_0846 | 780825 | (not set) | (not set) | 38.778940580974 | -77.186532818375 | 1.3319 | 2025-05-29 12:52:15.188 | in_vehicle | 100 | 4.8995502785055 | |
| 72469 | 250529_782182_16415274_0848 | 782182 | (not set) | (not set) | 38.866178818634 | -77.066298761709 | 1.9578 | 2025-05-29 12:52:15.289 | unknown | 100 | 11.27880050426 | |
| 72470 | 250529_780813_16421763_0733 | 780813 | (not set) | (not set) | 38.900863389873 | -77.050392311176 | 20.1271 | 2025-05-29 12:52:18.755 | in_vehicle | 100 | -0.44703925898772 | |
| 72471 | 250529_784811_6461772_0809 | 784811 | (not set) | (not set) | 38.893402491889 | -77.041731256185 | 7.6807 | 2025-05-29 12:52:19.325 | unknown | 100 | 4.9040206710953 | |
| 72472 | 250529_783145_6419315_0823 | 783145 | (not set) | (not set) | 39.11800385 | -77.0718689 | 17.2382 | 2025-05-29 12:52:19.949 | still | 33 | 11.269859719081 | |
| 72473 | 250529_781006_0_0847 | 781006 | (not set) | (not set) | 38.8828618 | -76.9898256 | 0.4937 | 2025-05-29 12:52:20.04 | on_bicycle | 100 | 2.9593998944987 | |
| 72474 | 250529_783553_16513328_0832 | 783553 | (not set) | (not set) | 38.916102706621 | -77.036565030487 | 2.531 | 2025-05-29 12:52:20.172 | in_vehicle | 100 | 3.9875901901705 | |
| 72475 | 250529_781273_16424909_0823 | 781273 | (not set) | (not set) | 38.984919326539 | -77.094668983244 | 0.6843 | 2025-05-29 12:52:20.243 | on_foot | 100 | 0.59903260704355 | |
| 72476 | 250529_782325_6461772_0837 | 782325 | (not set) | (not set) | 38.920811745506 | -77.042140666866 | 0.4222 | 2025-05-29 12:52:20.378 | on_foot | 100 | 0.88513773279569 | |
| 72477 | 250529_772683_16510502_0809 | 772683 | (not set) | (not set) | 38.9849979 | -76.9469683 | 9.2907 | 2025-05-29 12:52:20.821 | on_bicycle | 100 | 2.0832029468828 | |
| 72478 | 250529_753800_6439769_0817 | 753800 | (not set) | (not set) | 38.920816146841 | -77.01300703606 | 5.0573 | 2025-05-29 12:52:21.296 | on_foot | 100 | 0.80020027358803 | |
| 72479 | 250529_781000_16415274_0840 | 781000 | (not set) | (not set) | 38.916892552929 | -77.030379936807 | 0.641 | 2025-05-29 12:52:21.363 | on_bicycle | 100 | 1.0684238289807 | |
| 72480 | 250529_698742_16447752_0833 | 698742 | (not set) | (not set) | 38.805559335141 | -77.086296885195 | 7.1719 | 2025-05-29 12:52:22.505 | in_vehicle | 100 | 7.9930619507005 |